createdAt,value
2018-03-24T00:01:07.095Z,2.00
2018-03-24T00:03:33.308Z,2.00
2018-03-24T00:06:00.249Z,2.00
2018-03-24T00:08:27.204Z,2.00
2018-03-24T00:10:54.136Z,2.00
2018-03-24T00:13:21.100Z,2.00
2018-03-24T00:15:47.296Z,1.90
2018-03-24T00:18:13.517Z,1.90
2018-03-24T00:20:39.709Z,1.90
2018-03-24T00:23:06.164Z,1.80
2018-03-24T00:25:32.376Z,1.80
2018-03-24T00:27:58.564Z,1.80
2018-03-24T00:30:25.524Z,1.80
2018-03-24T00:32:51.761Z,1.70
2018-03-24T00:35:17.964Z,1.70
2018-03-24T00:37:44.910Z,1.70
2018-03-24T00:40:11.868Z,1.70
2018-03-24T00:42:38.809Z,1.70
2018-03-24T00:45:05.789Z,1.60
2018-03-24T00:47:31.988Z,1.60
2018-03-24T00:49:58.943Z,1.60
2018-03-24T00:52:25.165Z,1.60
2018-03-24T00:54:51.557Z,1.60
2018-03-24T00:57:17.781Z,1.50
2018-03-24T00:59:44.297Z,1.50
2018-03-24T01:02:10.508Z,1.60
2018-03-24T01:04:36.696Z,1.60
2018-03-24T01:07:02.921Z,1.70
2018-03-24T01:09:29.116Z,1.80
2018-03-24T01:11:55.341Z,1.80
2018-03-24T01:14:21.580Z,1.80
2018-03-24T01:16:47.772Z,1.90
2018-03-24T01:19:13.966Z,1.90
2018-03-24T01:21:40.560Z,1.90
2018-03-24T01:24:06.752Z,1.90
2018-03-24T01:26:33.705Z,1.90
2018-03-24T01:28:59.936Z,1.90
2018-03-24T01:31:26.157Z,1.90
2018-03-24T01:33:53.108Z,1.90
2018-03-24T01:36:20.061Z,1.90
2018-03-24T01:38:46.244Z,1.90
2018-03-24T01:41:12.460Z,2.00
2018-03-24T01:43:38.676Z,2.00
2018-03-24T01:46:04.906Z,2.00
2018-03-24T01:48:31.136Z,2.00
2018-03-24T01:50:57.328Z,2.00
2018-03-24T01:53:36.833Z,2.10
2018-03-24T01:56:03.037Z,2.10
2018-03-24T01:58:29.252Z,2.10
2018-03-24T02:00:55.439Z,2.00
2018-03-24T02:03:22.392Z,1.90
2018-03-24T02:05:49.329Z,1.80
2018-03-24T02:08:16.301Z,1.70
2018-03-24T02:10:42.543Z,1.70
2018-03-24T02:13:08.788Z,1.60
2018-03-24T02:15:35.447Z,1.50
2018-03-24T02:18:03.005Z,1.20
2018-03-24T02:20:30.769Z,1.00
2018-03-24T02:22:58.945Z,0.80
2018-03-24T02:25:25.177Z,0.80
2018-03-24T02:27:51.401Z,0.70
2018-03-24T02:30:17.616Z,0.60
2018-03-24T02:32:43.956Z,0.60
2018-03-24T02:35:10.929Z,0.50
2018-03-24T02:37:37.124Z,0.50
2018-03-24T02:40:03.340Z,0.50
2018-03-24T02:42:29.549Z,0.40
2018-03-24T02:44:55.763Z,0.40
2018-03-24T02:47:22.704Z,0.40
2018-03-24T02:49:49.665Z,0.40
2018-03-24T02:52:15.861Z,0.30
2018-03-24T02:54:42.355Z,0.30
2018-03-24T02:57:08.541Z,0.30
2018-03-24T02:59:35.496Z,0.30
2018-03-24T03:02:02.452Z,0.40
2018-03-24T03:04:28.669Z,0.40
2018-03-24T03:06:55.630Z,0.50
2018-03-24T03:09:21.840Z,0.50
2018-03-24T03:11:48.881Z,0.70
2018-03-24T03:14:15.132Z,0.60
2018-03-24T03:16:42.064Z,0.80
2018-03-24T03:19:09.040Z,0.80
2018-03-24T03:21:47.701Z,0.80
2018-03-24T03:24:14.000Z,0.80
2018-03-24T03:26:40.201Z,0.80
2018-03-24T03:29:07.198Z,0.80
2018-03-24T03:31:33.418Z,0.70
2018-03-24T03:33:59.600Z,0.70
2018-03-24T03:36:26.558Z,0.60
2018-03-24T03:38:52.752Z,0.60
2018-03-24T03:41:18.968Z,0.60
2018-03-24T03:43:45.164Z,0.60
2018-03-24T03:46:11.405Z,0.60
2018-03-24T03:48:37.597Z,0.70
2018-03-24T03:51:03.824Z,0.70
2018-03-24T03:53:30.016Z,0.70
2018-03-24T03:55:56.236Z,0.70
2018-03-24T03:58:22.437Z,0.70
2018-03-24T04:00:48.676Z,0.70
2018-03-24T04:03:14.868Z,0.60
2018-03-24T04:05:41.096Z,0.70
2018-03-24T04:08:08.030Z,0.70
2018-03-24T04:10:34.993Z,0.70
2018-03-24T04:13:01.193Z,0.70
2018-03-24T04:15:27.455Z,0.80
2018-03-24T04:17:53.648Z,0.80
2018-03-24T04:20:19.844Z,0.80
2018-03-24T04:22:46.080Z,0.80
2018-03-24T04:25:12.276Z,0.80
2018-03-24T04:27:38.492Z,0.80
2018-03-24T04:30:05.433Z,0.90
2018-03-24T04:32:32.401Z,0.90
2018-03-24T04:34:58.594Z,0.90
2018-03-24T04:37:25.560Z,0.90
2018-03-24T04:39:51.756Z,0.90
2018-03-24T04:42:17.998Z,0.90
2018-03-24T04:44:44.949Z,0.90
2018-03-24T04:47:11.908Z,0.90
2018-03-24T04:49:38.100Z,0.90
2018-03-24T04:52:04.342Z,0.90
2018-03-24T04:54:31.276Z,1.00
2018-03-24T04:56:57.502Z,1.00
2018-03-24T04:59:23.701Z,1.00
2018-03-24T05:01:49.916Z,1.00
2018-03-24T05:04:16.108Z,1.00
2018-03-24T05:06:43.065Z,1.10
2018-03-24T05:09:09.997Z,1.20
2018-03-24T05:11:36.228Z,1.20
2018-03-24T05:14:03.208Z,1.20
2018-03-24T05:16:29.407Z,1.20
2018-03-24T05:18:56.369Z,1.20
2018-03-24T05:21:23.304Z,1.20
2018-03-24T05:23:50.282Z,1.30
2018-03-24T05:26:16.480Z,1.30
2018-03-24T05:28:43.464Z,1.40
2018-03-24T05:31:09.652Z,1.40
2018-03-24T05:33:36.608Z,1.60
2018-03-24T05:36:03.531Z,1.70
2018-03-24T05:38:29.745Z,1.70
2018-03-24T05:40:55.943Z,1.80
2018-03-24T05:43:22.190Z,2.00
2018-03-24T05:45:48.387Z,2.00
2018-03-24T05:48:14.604Z,2.10
2018-03-24T05:50:40.788Z,2.10
2018-03-24T05:53:07.018Z,2.10
2018-03-24T05:55:34.144Z,2.20
2018-03-24T05:58:00.336Z,2.40
2018-03-24T06:00:27.314Z,2.80
2018-03-24T06:02:53.538Z,2.80
2018-03-24T06:05:19.736Z,3.00
2018-03-24T06:07:45.958Z,3.20
2018-03-24T06:10:12.901Z,3.80
2018-03-24T06:12:39.125Z,3.80
2018-03-24T06:15:06.075Z,4.30
2018-03-24T06:17:33.005Z,4.80
2018-03-24T06:19:59.497Z,4.80
2018-03-24T06:22:25.716Z,5.40
2018-03-24T06:24:51.925Z,5.80
2018-03-24T06:27:18.863Z,5.60
2018-03-24T06:29:45.860Z,5.20
2018-03-24T06:32:12.065Z,5.20
2018-03-24T06:34:38.276Z,4.90
2018-03-24T06:37:05.249Z,5.00
2018-03-24T06:39:31.436Z,4.90
2018-03-24T06:41:58.384Z,4.70
2018-03-24T06:44:25.308Z,4.40
2018-03-24T06:46:51.589Z,4.30
2018-03-24T06:49:18.537Z,4.10
2018-03-24T06:51:44.901Z,4.00
2018-03-24T06:54:11.101Z,4.10
2018-03-24T06:56:37.332Z,4.30
2018-03-24T06:59:03.545Z,4.60
2018-03-24T07:01:29.739Z,5.20
2018-03-24T07:03:55.972Z,5.40
2018-03-24T07:06:22.177Z,5.50
2018-03-24T07:08:48.396Z,5.70
2018-03-24T07:11:14.584Z,6.10
2018-03-24T07:13:41.537Z,7.00
2018-03-24T07:16:08.051Z,7.00
2018-03-24T07:18:35.025Z,9.30
2018-03-24T07:21:01.221Z,9.20
2018-03-24T07:23:28.403Z,10.40
2018-03-24T07:25:54.601Z,10.30
2018-03-24T07:28:21.536Z,10.90
2018-03-24T07:30:47.762Z,10.90
2018-03-24T07:33:13.955Z,10.80
2018-03-24T07:35:40.182Z,10.40
2018-03-24T07:38:06.428Z,10.10
2018-03-24T07:40:32.622Z,9.50
2018-03-24T07:42:58.812Z,9.10
2018-03-24T07:45:25.776Z,9.10
2018-03-24T07:47:52.712Z,9.00
2018-03-24T07:50:19.731Z,8.80
2018-03-24T07:52:45.920Z,8.80
2018-03-24T07:55:12.132Z,8.90
2018-03-24T07:57:38.347Z,9.10
2018-03-24T08:00:05.318Z,9.70
2018-03-24T08:02:31.512Z,9.70
2018-03-24T08:04:57.729Z,9.90
2018-03-24T08:07:23.934Z,10.90
2018-03-24T08:09:50.178Z,11.20
2018-03-24T08:12:16.745Z,11.30
2018-03-24T08:14:43.688Z,12.10
2018-03-24T08:17:10.646Z,12.00
2018-03-24T08:19:37.580Z,12.00
2018-03-24T08:22:04.601Z,12.70
2018-03-24T08:24:30.863Z,12.70
2018-03-24T08:26:57.092Z,13.40
2018-03-24T08:29:24.016Z,15.50
2018-03-24T08:31:51.708Z,17.10
2018-03-24T08:34:18.648Z,17.90
2018-03-24T08:36:45.609Z,16.60
2018-03-24T08:39:12.541Z,16.00
2018-03-24T08:41:39.500Z,16.50
2018-03-24T08:44:05.699Z,16.50
2018-03-24T08:46:32.662Z,16.90
2018-03-24T08:48:59.600Z,16.60
2018-03-24T08:51:25.808Z,16.60
2018-03-24T08:53:52.000Z,16.50
2018-03-24T08:56:18.248Z,17.70
2018-03-24T08:58:44.441Z,19.20
2018-03-24T09:01:10.713Z,19.80
2018-03-24T09:03:36.925Z,18.90
2018-03-24T09:06:03.112Z,18.20
2018-03-24T09:08:30.077Z,19.90
2018-03-24T09:10:56.275Z,19.80
2018-03-24T09:13:22.505Z,19.80
2018-03-24T09:15:49.456Z,18.70
2018-03-24T09:18:16.458Z,17.90
2018-03-24T09:20:42.654Z,17.90
2018-03-24T09:23:08.876Z,17.20
2018-03-24T09:25:35.093Z,16.80
2018-03-24T09:28:02.058Z,17.60
2018-03-24T09:30:28.277Z,17.60
2018-03-24T09:32:55.258Z,20.50
2018-03-24T09:35:21.453Z,20.50
2018-03-24T09:37:47.648Z,20.30
2018-03-24T09:40:13.860Z,20.60
2018-03-24T09:42:40.052Z,20.80
2018-03-24T09:45:06.266Z,19.50
2018-03-24T09:47:33.191Z,20.30
2018-03-24T09:49:59.428Z,20.30
2018-03-24T09:52:27.123Z,21.60
2018-03-24T09:54:53.343Z,21.60
2018-03-24T09:57:19.536Z,21.30
2018-03-24T09:59:45.756Z,18.90
2018-03-24T10:02:13.503Z,14.20
2018-03-24T10:04:39.737Z,14.20
2018-03-24T10:07:05.945Z,13.30
2018-03-24T10:09:32.154Z,12.80
2018-03-24T10:11:58.412Z,12.30
2018-03-24T10:14:24.603Z,11.70
2018-03-24T10:16:50.837Z,11.00
2018-03-24T10:19:17.029Z,10.40
2018-03-24T10:24:42.829Z,10.30
2018-03-24T10:27:09.052Z,9.90
2018-03-24T10:29:35.241Z,10.00
2018-03-24T10:32:02.204Z,10.20
2018-03-24T10:34:29.136Z,10.10
2018-03-24T10:36:56.099Z,10.10
2018-03-24T10:39:22.296Z,10.10
2018-03-24T10:41:48.561Z,10.00
2018-03-24T10:44:14.754Z,10.20
2018-03-24T10:46:40.958Z,10.30
2018-03-24T10:49:07.176Z,9.70
2018-03-24T10:51:33.448Z,9.30
2018-03-24T10:53:59.668Z,9.00
2018-03-24T10:56:25.860Z,8.90
2018-03-24T10:58:52.072Z,8.80
2018-03-24T11:01:25.252Z,8.70
2018-03-24T11:03:51.511Z,8.90
2018-03-24T11:06:17.732Z,8.70
2018-03-24T11:08:43.948Z,8.70
2018-03-24T11:11:10.204Z,8.90
2018-03-24T11:13:36.425Z,8.80
2018-03-24T11:16:02.680Z,8.60
2018-03-24T11:18:28.904Z,8.80
2018-03-24T11:20:55.124Z,9.10
2018-03-24T11:23:21.341Z,9.60
2018-03-24T11:25:47.528Z,10.00
2018-03-24T11:28:14.479Z,10.40
2018-03-24T11:30:41.409Z,10.70
2018-03-24T11:33:08.372Z,11.20
2018-03-24T11:35:35.300Z,11.70
2018-03-24T11:38:01.545Z,11.60
2018-03-24T11:40:28.788Z,12.90
2018-03-24T11:42:55.729Z,13.30
2018-03-24T11:45:22.701Z,13.30
2018-03-24T11:47:48.897Z,13.30
2018-03-24T11:50:15.196Z,12.90
2018-03-24T11:52:41.389Z,13.00
2018-03-24T11:55:07.621Z,13.60
2018-03-24T11:57:33.807Z,13.30
2018-03-24T12:00:07.732Z,11.70
2018-03-24T12:02:33.931Z,11.70
2018-03-24T12:05:00.144Z,11.50
2018-03-24T12:07:26.398Z,11.00
2018-03-24T12:09:52.608Z,10.80
2018-03-24T12:12:18.817Z,10.90
2018-03-24T12:14:45.008Z,11.00
2018-03-24T12:17:11.964Z,11.40
2018-03-24T12:19:38.903Z,11.10
2018-03-24T12:22:05.888Z,11.00
2018-03-24T12:24:32.085Z,10.90
2018-03-24T12:26:59.044Z,10.30
2018-03-24T12:29:25.232Z,10.30
2018-03-24T12:31:51.450Z,10.10
2018-03-24T12:34:17.640Z,10.30
2018-03-24T12:36:44.074Z,10.50
2018-03-24T12:39:10.270Z,11.30
2018-03-24T12:41:37.236Z,11.90
2018-03-24T12:44:03.428Z,11.80
2018-03-24T12:46:29.649Z,11.70
2018-03-24T12:48:55.845Z,11.50
2018-03-24T12:51:22.083Z,11.20
2018-03-24T12:53:48.367Z,11.40
2018-03-24T12:56:15.313Z,11.30
2018-03-24T12:58:42.288Z,11.00
2018-03-24T13:01:08.482Z,11.00
2018-03-24T13:03:35.446Z,11.80
2018-03-24T13:06:08.669Z,11.80
2018-03-24T13:08:34.896Z,12.20
2018-03-24T13:11:01.089Z,12.20
2018-03-24T13:13:28.050Z,12.40
2018-03-24T13:15:54.240Z,12.40
2018-03-24T13:18:20.461Z,12.30
2018-03-24T13:20:46.653Z,12.00
2018-03-24T13:23:12.911Z,11.70
2018-03-24T13:25:39.117Z,11.30
2018-03-24T13:28:05.309Z,10.90
2018-03-24T13:30:32.268Z,10.40
2018-03-24T13:32:58.461Z,10.30
2018-03-24T13:35:24.689Z,10.30
2018-03-24T13:37:50.881Z,10.40
2018-03-24T13:40:17.104Z,10.20
2018-03-24T13:42:43.378Z,10.00
2018-03-24T13:45:09.601Z,10.00
2018-03-24T13:47:35.800Z,9.90
2018-03-24T13:50:09.008Z,10.00
2018-03-24T13:52:35.205Z,9.70
2018-03-24T13:55:01.421Z,9.70
2018-03-24T13:57:27.616Z,9.80
2018-03-24T13:59:53.828Z,9.90
2018-03-24T14:02:20.018Z,10.30
2018-03-24T14:04:46.241Z,10.70
2018-03-24T14:07:12.428Z,10.80
2018-03-24T14:09:38.644Z,10.80
2018-03-24T14:12:04.828Z,10.70
2018-03-24T14:14:31.060Z,11.00
2018-03-24T14:16:57.256Z,10.80
2018-03-24T14:19:24.212Z,10.80
2018-03-24T14:21:51.168Z,11.00
2018-03-24T14:24:17.387Z,11.00
2018-03-24T14:26:44.319Z,11.40
2018-03-24T14:29:11.272Z,12.00
2018-03-24T14:31:38.200Z,12.60
2018-03-24T14:34:04.725Z,12.60
2018-03-24T14:36:30.921Z,13.60
2018-03-24T14:38:57.108Z,13.90
2018-03-24T14:41:24.088Z,15.40
2018-03-24T14:43:50.280Z,15.40
2018-03-24T14:46:17.241Z,14.40
2018-03-24T14:48:44.205Z,14.30
2018-03-24T14:51:10.436Z,14.30
2018-03-24T14:53:36.634Z,14.10
2018-03-24T14:56:03.629Z,16.60
2018-03-24T14:58:29.821Z,16.60
2018-03-24T15:00:56.784Z,18.00
2018-03-24T15:03:22.981Z,18.00
2018-03-24T15:05:49.976Z,17.50
2018-03-24T15:08:16.168Z,17.50
2018-03-24T15:10:43.105Z,17.20
2018-03-24T15:13:10.129Z,17.20
2018-03-24T15:15:36.337Z,17.20
2018-03-24T15:18:02.557Z,17.30
2018-03-24T15:20:28.740Z,17.80
2018-03-24T15:22:55.739Z,18.10
2018-03-24T15:25:21.928Z,18.00
2018-03-24T15:27:48.157Z,18.30
2018-03-24T15:30:27.477Z,17.40
2018-03-24T15:33:06.934Z,16.30
2018-03-24T15:35:33.167Z,16.30
2018-03-24T15:37:59.384Z,15.70
2018-03-24T15:40:26.348Z,15.80
2018-03-24T15:42:52.573Z,15.80
2018-03-24T15:45:18.772Z,15.90
2018-03-24T15:47:44.997Z,15.90
2018-03-24T15:50:11.200Z,15.80
2018-03-24T15:52:37.398Z,15.30
2018-03-24T15:55:03.621Z,14.90
2018-03-24T15:57:29.821Z,14.80
2018-03-24T15:59:56.793Z,14.10
2018-03-24T16:02:23.020Z,14.00
2018-03-24T16:04:49.241Z,13.40
2018-03-24T16:07:16.195Z,12.30
2018-03-24T16:09:42.418Z,12.20
2018-03-24T16:12:09.374Z,11.20
2018-03-24T16:14:35.592Z,11.10
2018-03-24T16:17:02.533Z,10.90
2018-03-24T16:19:29.493Z,11.00
2018-03-24T16:21:55.704Z,10.90
2018-03-24T16:24:22.664Z,11.00
2018-03-24T16:26:55.948Z,11.00
2018-03-24T16:29:22.904Z,11.20
2018-03-24T16:31:49.092Z,11.20
2018-03-24T16:34:15.309Z,11.20
2018-03-24T16:36:41.510Z,11.20
2018-03-24T16:39:07.723Z,11.30
2018-03-24T16:41:33.928Z,11.20
2018-03-24T16:44:00.908Z,10.90
2018-03-24T16:46:27.105Z,10.90
2018-03-24T16:48:54.049Z,10.10
2018-03-24T16:51:21.031Z,9.70
2018-03-24T16:53:47.243Z,9.60
2018-03-24T16:56:14.185Z,9.10
2018-03-24T16:58:41.129Z,8.60
2018-03-24T17:01:08.085Z,8.00
2018-03-24T17:03:34.285Z,8.00
2018-03-24T17:06:00.495Z,7.70
2018-03-24T17:08:26.693Z,7.30
2018-03-24T17:10:52.912Z,7.00
2018-03-24T17:13:19.104Z,6.80
2018-03-24T17:15:46.056Z,6.30
2018-03-24T17:18:12.990Z,6.10
2018-03-24T17:20:39.266Z,6.10
2018-03-24T17:23:05.476Z,5.90
2018-03-24T17:25:31.753Z,5.80
2018-03-24T17:27:58.003Z,5.60
2018-03-24T17:30:24.209Z,5.50
2018-03-24T17:32:50.404Z,5.40
2018-03-24T17:35:16.612Z,5.20
2018-03-24T17:37:43.559Z,4.90
2018-03-24T17:40:10.523Z,4.80
2018-03-24T17:42:36.725Z,4.80
2018-03-24T17:45:03.690Z,4.60
2018-03-24T17:47:29.888Z,4.60
2018-03-24T17:50:03.726Z,4.40
2018-03-24T17:52:29.939Z,4.40
2018-03-24T17:54:56.900Z,4.30
2018-03-24T17:57:23.104Z,4.30
2018-03-24T17:59:50.076Z,4.20
2018-03-24T18:02:16.283Z,4.10
2018-03-24T18:04:43.223Z,4.10
2018-03-24T18:07:09.449Z,4.00
2018-03-24T18:09:35.701Z,4.00
2018-03-24T18:12:02.640Z,3.90
2018-03-24T18:14:29.600Z,3.80
2018-03-24T18:16:55.793Z,3.80
2018-03-24T18:19:22.008Z,3.70
2018-03-24T18:21:48.252Z,3.70
2018-03-24T18:24:14.492Z,3.70
2018-03-24T18:26:40.691Z,3.60
2018-03-24T18:29:06.904Z,3.60
2018-03-24T18:31:33.100Z,3.50
2018-03-24T18:33:59.331Z,3.50
2018-03-24T18:36:25.532Z,3.40
2018-03-24T18:38:51.721Z,3.40
2018-03-24T18:41:17.958Z,3.40
2018-03-24T18:43:44.149Z,3.30
2018-03-24T18:46:10.372Z,3.30
2018-03-24T18:48:37.301Z,3.20
2018-03-24T18:51:04.256Z,3.20
2018-03-24T18:53:31.221Z,3.20
2018-03-24T18:55:57.445Z,3.20
2018-03-24T18:58:23.696Z,3.20
2018-03-24T19:00:49.920Z,3.20
2018-03-24T19:03:16.116Z,3.20
2018-03-24T19:05:43.085Z,3.10
2018-03-24T19:08:09.333Z,3.00
2018-03-24T19:10:35.528Z,3.00
2018-03-24T19:13:02.456Z,2.90
2018-03-24T19:15:29.416Z,2.90
2018-03-24T19:17:56.345Z,2.90
2018-03-24T19:20:22.556Z,2.80
2018-03-24T19:22:48.776Z,2.80
2018-03-24T19:25:15.005Z,2.90
2018-03-24T19:27:41.205Z,2.80
2018-03-24T19:30:07.425Z,2.80
2018-03-24T19:32:33.620Z,2.80
2018-03-24T19:34:59.849Z,2.80
2018-03-24T19:37:26.058Z,2.80
2018-03-24T19:39:52.277Z,2.70
2018-03-24T19:42:18.481Z,2.70
2018-03-24T19:44:44.673Z,2.70
2018-03-24T19:47:11.633Z,2.60
2018-03-24T19:49:37.853Z,2.60
2018-03-24T19:52:04.793Z,2.60
2018-03-24T19:54:31.753Z,2.50
2018-03-24T19:56:57.953Z,2.50
2018-03-24T19:59:24.200Z,2.40
2018-03-24T20:01:51.131Z,2.30
2018-03-24T20:04:17.340Z,2.30
2018-03-24T20:06:43.849Z,2.20
2018-03-24T20:09:10.028Z,2.20
2018-03-24T20:11:36.988Z,2.10
2018-03-24T20:14:03.921Z,2.10
2018-03-24T20:16:30.955Z,2.00
2018-03-24T20:18:57.137Z,2.00
2018-03-24T20:21:23.331Z,2.00
2018-03-24T20:23:50.305Z,2.00
2018-03-24T20:26:16.497Z,2.00
2018-03-24T20:28:43.452Z,2.00
2018-03-24T20:31:10.394Z,2.00
2018-03-24T20:33:37.362Z,2.00
2018-03-24T20:36:03.560Z,2.00
2018-03-24T20:38:29.777Z,1.90
2018-03-24T20:40:55.972Z,1.80
2018-03-24T20:43:22.189Z,1.90
2018-03-24T20:45:48.425Z,1.90
2018-03-24T20:48:14.639Z,1.80
2018-03-24T20:50:40.832Z,1.80
2018-03-24T20:53:07.053Z,1.70
2018-03-24T20:55:33.244Z,1.70
2018-03-24T20:57:59.460Z,1.70
2018-03-24T21:00:25.681Z,1.70
2018-03-24T21:02:51.887Z,1.60
2018-03-24T21:05:18.820Z,1.50
2018-03-24T21:07:45.104Z,1.50
2018-03-24T21:10:12.020Z,1.40
2018-03-24T21:12:38.216Z,1.40
2018-03-24T21:15:05.243Z,1.30
2018-03-24T21:17:31.440Z,1.30
2018-03-24T21:19:57.680Z,1.30
2018-03-24T21:22:23.896Z,1.30
2018-03-24T21:24:50.087Z,1.30
2018-03-24T21:27:16.306Z,1.40
2018-03-24T21:29:42.547Z,1.30
2018-03-24T21:32:08.777Z,1.30
2018-03-24T21:34:34.987Z,1.30
2018-03-24T21:37:01.196Z,1.30
2018-03-24T21:39:27.393Z,1.20
2018-03-24T21:41:53.608Z,1.20
2018-03-24T21:44:20.553Z,1.20
2018-03-24T21:46:47.513Z,1.20
2018-03-24T21:49:13.725Z,1.20
2018-03-24T21:51:40.688Z,1.20
2018-03-24T21:54:06.884Z,1.10
2018-03-24T21:56:33.190Z,1.10
2018-03-24T21:58:59.399Z,1.10
2018-03-24T22:01:25.617Z,1.00
2018-03-24T22:03:51.804Z,1.00
2018-03-24T22:06:18.028Z,0.90
2018-03-24T22:08:44.232Z,0.80
2018-03-24T22:11:10.448Z,0.80
2018-03-24T22:13:36.644Z,0.70
2018-03-24T22:16:02.926Z,0.70
2018-03-24T22:18:29.211Z,0.70
2018-03-24T22:20:56.138Z,0.60
2018-03-24T22:23:23.104Z,0.60
2018-03-24T22:25:49.372Z,0.60
2018-03-24T22:28:15.569Z,0.60
2018-03-24T22:30:41.801Z,0.60
2018-03-24T22:33:08.016Z,0.50
2018-03-24T22:35:34.201Z,0.50
2018-03-24T22:38:00.432Z,0.40
2018-03-24T22:40:26.624Z,0.40
2018-03-24T22:42:52.850Z,0.40
2018-03-24T22:45:19.069Z,0.40
2018-03-24T22:47:45.297Z,0.40
2018-03-24T22:50:11.485Z,0.30
2018-03-24T22:52:37.705Z,0.30
2018-03-24T22:55:03.901Z,0.30
2018-03-24T22:57:30.132Z,0.30
2018-03-24T22:59:57.076Z,0.30
2018-03-24T23:02:23.301Z,0.20
2018-03-24T23:04:49.533Z,0.20
2018-03-24T23:07:15.747Z,0.20
2018-03-24T23:09:42.000Z,0.20
2018-03-24T23:12:08.227Z,0.20
2018-03-24T23:14:34.444Z,0.10
2018-03-24T23:17:00.702Z,0.10
2018-03-24T23:19:26.901Z,0.10
2018-03-24T23:21:53.103Z,0.10
2018-03-24T23:24:20.105Z,0.10
2018-03-24T23:26:46.333Z,0.00
2018-03-24T23:29:12.537Z,0.00
2018-03-24T23:31:38.729Z,0.00
2018-03-24T23:34:05.683Z,0.00
2018-03-24T23:36:32.632Z,0.00
2018-03-24T23:38:58.824Z,0.00
2018-03-24T23:41:25.801Z,0.00
2018-03-24T23:43:52.735Z,0.10
2018-03-24T23:46:19.852Z,0.10
2018-03-24T23:48:46.048Z,0.10
2018-03-24T23:51:12.249Z,0.10
2018-03-24T23:53:39.441Z,0.10
2018-03-24T23:56:05.788Z,0.10
2018-03-24T23:58:32.005Z,0.20
